»·PEaware :: DAL3010 KRNO-KSLC

DAL3010 :: KRNO-KSLC

FLIGHT INFORMATION

Flight Status: Arrived
Operator:
Delta Air Lines
More flights by this operator :: More flights under this callsign
Pilot: Kyle M. (9350)
Aircraft: BOEING 737-800
(B738)
More flights by this aircraft type
Origin: KRNO Reno/Tahoe Intl
United States
Destination: KSLC Salt Lake City Intl
United States
More flights between these airports :: More routes between these airports
Route: ZEFFR6 BLKJK LLC BAM J154 BVL WAATS5
File this flight plan on PilotEdge
Remarks: RMK / SIMBRIEF
Altitude:
(Current/Filed)
35,000ft
Speed:
(Current/Filed)
447kts
Departed: 30-Jul-20 11:26 AM
Arrived: 30-Jul-20 12:36 PM
Distance/Time
Traveled:
365nm/1:10
Distance/Time
To Go:
Arrived

Flight Plot

Page will automatically refresh every two minutes.


Map Options




Map Legend


Flown Route
Filed Route
Departure Airport
Arrival Airport
Navaid (VOR, NDB)
Fix

Horizontal Profiles

Position Reports

Time Latitude Longitude Heading Altitude Ground
Speed
30-Jul-20 11:02 39.506507 -119.772831 357 4419ft 0kts
30-Jul-20 11:03 39.506507 -119.772831 357 4419ft 0kts
30-Jul-20 11:04 39.506507 -119.772831 357 4419ft 0kts
30-Jul-20 11:05 39.506507 -119.772831 357 4419ft 0kts
30-Jul-20 11:06 39.506507 -119.772831 357 4419ft 0kts
30-Jul-20 11:07 39.506507 -119.772831 357 4419ft 0kts
30-Jul-20 11:08 39.506507 -119.772831 357 4419ft 0kts
30-Jul-20 11:09 39.506507 -119.772831 357 4419ft 0kts
30-Jul-20 11:10 39.506507 -119.772831 357 4419ft 0kts
30-Jul-20 11:11 39.506507 -119.772831 357 4419ft 0kts
30-Jul-20 11:12 39.506507 -119.772831 357 4419ft 0kts
30-Jul-20 11:13 39.506507 -119.772831 357 4419ft 0kts
30-Jul-20 11:14 39.506507 -119.772831 357 4419ft 0kts
30-Jul-20 11:15 39.506506 -119.772831 357 4419ft 0kts
30-Jul-20 11:16 39.506024 -119.772847 35 4419ft 2kts
30-Jul-20 11:17 39.505915 -119.773169 90 4419ft 0kts
30-Jul-20 11:19 39.505915 -119.773169 90 4419ft 0kts
30-Jul-20 11:20 39.505915 -119.773169 90 4419ft 0kts
30-Jul-20 11:21 39.505912 -119.772317 90 4419ft 3kts
30-Jul-20 11:22 39.507712 -119.771490 359 4419ft 17kts
30-Jul-20 11:23 39.512571 -119.771470 0 4419ft 16kts
30-Jul-20 11:24 39.513730 -119.768886 89 4419ft 8kts
30-Jul-20 11:25 39.513291 -119.766772 168 4419ft 9kts
30-Jul-20 11:26 39.481173 -119.766857 179 5086ft 191kts
30-Jul-20 11:27 39.425142 -119.768785 184 7424ft 214kts
30-Jul-20 11:28 39.357003 -119.769433 174 9040ft 278kts
30-Jul-20 11:29 39.294449 -119.713104 119 12091ft 295kts
30-Jul-20 11:30 39.305271 -119.602227 57 14056ft 358kts
30-Jul-20 11:31 39.369391 -119.491884 49 16005ft 397kts
30-Jul-20 11:32 39.454689 -119.396062 42 18368ft 414kts
30-Jul-20 11:33 39.541580 -119.293069 43 20630ft 427kts
30-Jul-20 11:34 39.628212 -119.183615 43 22704ft 440kts
30-Jul-20 11:34 39.703509 -119.091028 42 24298ft 450kts
30-Jul-20 11:36 39.812424 -118.959102 41 26331ft 463kts
30-Jul-20 11:36 39.892174 -118.862612 41 27668ft 472kts
30-Jul-20 11:38 40.006121 -118.724360 40 29392ft 484kts
30-Jul-20 11:39 40.101255 -118.598394 55 30983ft 490kts
30-Jul-20 11:39 40.151596 -118.464565 66 32380ft 490kts
30-Jul-20 11:40 40.200603 -118.300187 69 33906ft 488kts
30-Jul-20 11:42 40.255247 -118.104842 70 35154ft 492kts
30-Jul-20 11:42 40.294464 -117.961634 70 35162ft 501kts
30-Jul-20 11:43 40.341141 -117.789515 70 35165ft 499kts
30-Jul-20 11:44 40.387629 -117.616712 70 35164ft 500kts
30-Jul-20 11:45 40.433900 -117.443476 70 35165ft 501kts
30-Jul-20 11:46 40.479940 -117.270054 70 35164ft 501kts
30-Jul-20 11:47 40.525907 -117.095756 70 35164ft 502kts
30-Jul-20 11:48 40.561846 -116.917815 81 35172ft 503kts
30-Jul-20 11:49 40.579152 -116.734238 84 35173ft 502kts
30-Jul-20 11:50 40.591881 -116.550633 85 35173ft 502kts
30-Jul-20 11:51 40.603392 -116.366278 85 35173ft 502kts
30-Jul-20 11:52 40.614428 -116.182254 86 35173ft 502kts
30-Jul-20 11:53 40.625064 -115.998109 86 35221ft 502kts
30-Jul-20 11:54 40.635370 -115.813766 86 35255ft 504kts
30-Jul-20 11:56 40.647045 -115.598057 86 35255ft 503kts
30-Jul-20 11:56 40.655126 -115.444079 86 35254ft 503kts
30-Jul-20 11:57 40.664626 -115.258792 86 35253ft 504kts
30-Jul-20 11:58 40.673837 -115.073577 86 35242ft 505kts
30-Jul-20 11:59 40.682503 -114.888062 87 35228ft 505kts
30-Jul-20 12:00 40.689195 -114.701375 87 35228ft 506kts
30-Jul-20 12:01 40.696917 -114.516189 86 35228ft 493kts
30-Jul-20 12:02 40.704563 -114.334795 87 35228ft 496kts
30-Jul-20 12:03 40.712233 -114.150575 87 33639ft 510kts
30-Jul-20 12:04 40.719615 -113.964846 87 30515ft 504kts
30-Jul-20 12:05 40.726499 -113.784208 87 28392ft 473kts
30-Jul-20 12:06 40.727191 -113.617254 90 26800ft 441kts
30-Jul-20 12:07 40.726188 -113.458351 89 24896ft 421kts
30-Jul-20 12:08 40.725624 -113.305766 89 23023ft 403kts
30-Jul-20 12:09 40.725062 -113.159121 89 21167ft 387kts
30-Jul-20 12:10 40.724365 -113.016075 89 19308ft 393kts
30-Jul-20 12:11 40.723289 -112.874742 89 17440ft 374kts
30-Jul-20 12:12 40.721703 -112.736677 89 17031ft 379kts
30-Jul-20 12:13 40.720397 -112.597915 89 16867ft 365kts
30-Jul-20 12:14 40.717975 -112.466932 91 15216ft 350kts
30-Jul-20 12:15 40.713809 -112.334026 92 13360ft 358kts
30-Jul-20 12:16 40.712915 -112.206412 87 12144ft 325kts
30-Jul-20 12:17 40.747488 -112.113195 27 12035ft 269kts
30-Jul-20 12:18 40.818458 -112.099187 353 11967ft 264kts
30-Jul-20 12:19 40.892567 -112.108574 354 10462ft 267kts
30-Jul-20 12:20 40.963290 -112.117002 354 8967ft 246kts
30-Jul-20 12:21 41.014213 -112.079435 89 8035ft 244kts
30-Jul-20 12:22 40.978802 -112.005568 131 7073ft 236kts
30-Jul-20 12:23 40.921747 -111.989844 177 6511ft 194kts
30-Jul-20 12:24 40.873155 -111.984583 174 5551ft 171kts
30-Jul-20 12:25 40.824624 -111.978975 174 4616ft 170kts
30-Jul-20 12:26 40.777919 -111.973596 175 5233ft 168kts
30-Jul-20 12:27 40.720391 -111.967652 183 6625ft 224kts
30-Jul-20 12:28 40.707313 -112.026823 324 7064ft 225kts
30-Jul-20 12:29 40.769089 -112.058093 350 7037ft 241kts
30-Jul-20 12:30 40.835502 -112.073204 350 7039ft 241kts
30-Jul-20 12:31 40.900499 -112.070971 34 6479ft 231kts
30-Jul-20 12:32 40.902114 -112.004812 122 6086ft 184kts
30-Jul-20 12:33 40.858750 -111.982994 175 5257ft 176kts
30-Jul-20 12:34 40.811034 -111.977393 174 4345ft 170kts
30-Jul-20 12:35 40.785264 -111.975246 205 4237ft 27kts
30-Jul-20 12:36 40.786952 -111.976727 355 4237ft 11kts
30-Jul-20 12:37 40.789723 -111.978139 264 4237ft 12kts
30-Jul-20 12:38 40.789116 -111.980744 228 4237ft 0kts

Navigation Log

Ident Type
Flight plan parsing failed, navigation log unavailable